Time;durP1;ratioP1;P1;durP2;ratioP2;P2;SDS_P1;SDS_P2;PMS_P1;PMS_P2;Temp;Humidity;BMP_temperature;BMP_pressure;BME280_temperature;BME280_humidity;BME280_pressure;Samples;Min_cycle;Max_cycle;Signal;HPM_P1;HPM_P2
2021/06/17 00:01:06;;;;;;;;;14.00;13.00;;;;;21.96;49.37;98714.06;4858036;28;102719;-86
2021/06/17 00:03:47;;;;;;;;;12.00;12.00;;;;;21.91;48.75;98692.00;4785724;28;102733;-86
2021/06/17 00:06:28;;;;;;;;;11.33;11.00;;;;;21.84;48.89;98696.13;4880821;28;103868;-87
2021/06/17 00:09:10;;;;;;;;;10.00;10.00;;;;;21.87;49.16;98701.91;4835267;28;102017;-86
2021/06/17 00:11:51;;;;;;;;;12.00;11.33;;;;;21.84;48.87;98696.91;4889942;28;102265;-86
2021/06/17 00:14:21;;;;;;;;;10.67;9.67;;;;;21.78;49.07;98684.25;4845337;28;102715;-86
2021/06/17 00:17:03;;;;;;;;;12.67;12.33;;;;;21.85;48.71;98711.50;4863436;28;108463;-86
2021/06/17 00:19:37;;;;;;;;;10.67;8.67;;;;;21.92;49.22;98729.44;4852548;28;101861;-86
2021/06/17 00:22:24;;;;;;;;;12.00;12.00;;;;;21.91;49.11;98718.69;4812525;28;102207;-86
2021/06/17 00:25:09;;;;;;;;;13.33;13.00;;;;;21.88;48.83;98722.00;4907113;28;102940;-86
2021/06/17 00:27:57;;;;;;;;;13.00;12.00;;;;;21.82;48.77;98707.38;4794190;28;106245;-85
2021/06/17 00:30:48;;;;;;;;;10.33;10.00;;;;;21.84;49.10;98718.94;4906346;28;102144;-86
2021/06/17 00:33:34;;;;;;;;;10.67;10.00;;;;;21.80;48.89;98717.81;4865445;28;102093;-86
2021/06/17 00:36:18;;;;;;;;;11.33;11.33;;;;;21.83;48.66;98720.06;4822994;28;103966;-86
2021/06/17 00:39:06;;;;;;;;;9.67;9.67;;;;;21.79;49.02;98716.19;4840142;28;102942;-86
2021/06/17 00:41:55;;;;;;;;;11.33;10.67;;;;;21.82;48.90;98721.16;4770496;28;102119;-86
2021/06/17 00:44:40;;;;;;;;;12.00;11.00;;;;;21.78;48.83;98720.03;4816246;28;101758;-86
2021/06/17 00:47:26;;;;;;;;;11.33;11.33;;;;;21.76;48.76;98712.03;4827730;28;103114;-86
2021/06/17 00:50:12;;;;;;;;;15.00;13.33;;;;;21.86;49.00;98727.78;4858270;28;106479;-85
2021/06/17 00:53:01;;;;;;;;;11.67;10.33;;;;;21.83;48.61;98725.56;4826624;28;102253;-86
2021/06/17 00:55:46;;;;;;;;;13.00;11.00;;;;;21.80;48.91;98712.31;4822733;28;104812;-86
2021/06/17 00:58:34;;;;;;;;;11.67;11.33;;;;;21.83;48.92;98724.72;4878801;28;102169;-86
2021/06/17 01:01:22;;;;;;;;;12.33;11.33;;;;;21.78;48.73;98714.53;4791522;28;107922;-85
2021/06/17 01:04:06;;;;;;;;;12.33;12.00;;;;;21.79;48.93;98721.69;4839406;28;108764;-85
2021/06/17 01:06:53;;;;;;;;;11.67;10.33;;;;;21.81;48.66;98730.50;4776813;28;102160;-84
2021/06/17 01:09:55;;;;;;;;;11.67;11.00;;;;;21.73;48.53;98704.34;4851491;28;102593;-86
2021/06/17 01:13:11;;;;;;;;;12.00;11.67;;;;;21.78;48.64;98720.03;4809091;28;106331;-85
2021/06/17 01:16:02;;;;;;;;;12.67;12.00;;;;;21.74;48.97;98710.66;4763882;28;101743;-86
2021/06/17 01:19:20;;;;;;;;;11.00;11.00;;;;;21.80;48.69;98728.84;4771455;28;102844;-84
2021/06/17 01:22:15;;;;;;;;;12.33;9.33;;;;;21.74;48.84;98718.94;4770804;28;102989;-85
2021/06/17 01:25:10;;;;;;;;;11.00;10.00;;;;;21.70;48.56;98715.06;4755612;28;106161;-86
2021/06/17 01:28:20;;;;;;;;;10.67;10.67;;;;;21.75;48.72;98723.31;4782516;28;102997;-86
2021/06/17 01:31:14;;;;;;;;;10.33;10.00;;;;;21.77;48.60;98723.88;4834669;28;101983;-85
2021/06/17 01:34:02;;;;;;;;;10.00;10.00;;;;;21.76;48.65;98730.47;4808898;28;102097;-85
2021/06/17 01:37:05;;;;;;;;;10.33;10.33;;;;;21.72;48.49;98726.63;4787007;28;106435;-86
2021/06/17 01:39:49;;;;;;;;;11.00;11.00;;;;;21.74;48.63;98727.19;4848233;28;102594;-86
2021/06/17 01:42:40;;;;;;;;;11.00;10.33;;;;;21.70;48.41;98720.56;4866546;28;102488;-86
2021/06/17 01:45:46;;;;;;;;;13.00;12.33;;;;;21.72;48.21;98729.38;4827829;28;103702;-85
2021/06/17 01:48:32;;;;;;;;;14.00;13.00;;;;;;;;4767078;28;106422;-86
2021/06/17 01:51:25;;;;;;;;;9.00;8.33;;;;;21.63;48.60;98707.03;4810096;28;102459;-86
2021/06/17 01:54:30;;;;;;;;;12.33;11.67;;;;;21.62;48.13;98704.56;4854238;28;101819;-87
2021/06/17 01:57:13;;;;;;;;;10.00;10.00;;;;;21.64;48.33;98703.19;4802558;28;102861;-85
2021/06/17 01:59:59;;;;;;;;;12.00;12.00;;;;;21.69;48.49;98714.22;4821020;28;106250;-86
2021/06/17 02:02:57;;;;;;;;;12.33;12.00;;;;;21.69;48.30;98732.66;4816365;28;107168;-86
2021/06/17 02:05:48;;;;;;;;;10.67;9.67;;;;;21.63;48.26;98712.56;4841306;28;102151;-86
2021/06/17 02:08:33;;;;;;;;;9.67;9.33;;;;;;;;4776410;28;102610;-85
2021/06/17 02:11:26;;;;;;;;;12.00;10.33;;;;;21.59;48.39;98705.94;4796912;28;106207;-86
2021/06/17 02:14:24;;;;;;;;;10.67;10.67;;;;;21.62;48.33;98719.16;4768930;28;103078;-85
2021/06/17 02:17:11;;;;;;;;;11.67;10.67;;;;;21.60;48.04;98718.59;4755943;28;102425;-84
2021/06/17 02:20:04;;;;;;;;;10.67;9.67;;;;;21.59;48.12;98716.13;4739853;28;103511;-85
2021/06/17 02:22:54;;;;;;;;;13.67;12.67;;;;;21.62;47.92;98721.06;4793589;28;107263;-86
2021/06/17 02:25:59;;;;;;;;;10.00;10.00;;;;;21.50;47.89;98702.03;4787845;28;103612;-86
2021/06/17 02:28:47;;;;;;;;;12.67;11.33;;;;;21.62;48.56;98718.31;4730733;28;102007;-86
2021/06/17 02:31:36;;;;;;;;;12.33;11.00;;;;;21.57;48.21;98707.31;4686626;28;102230;-86
2021/06/17 02:34:25;;;;;;;;;11.00;11.00;;;;;21.58;47.85;98703.44;4684821;28;109371;-86
2021/06/17 02:37:11;;;;;;;;;11.00;10.33;;;;;21.56;47.72;98700.16;4763035;28;104141;-86
2021/06/17 02:40:25;;;;;;;;;8.67;8.67;;;;;21.50;48.32;98698.47;4595232;28;102517;-86
2021/06/17 02:43:48;;;;;;;;;10.67;10.67;;;;;21.53;48.14;98707.00;4626336;28;103232;-84
2021/06/17 02:46:51;;;;;;;;;13.00;12.33;;;;;21.47;47.63;98685.25;4665665;28;107565;-85
2021/06/17 02:50:03;;;;;;;;;9.33;9.00;;;;;21.50;47.62;98696.53;4672537;28;103251;-85
2021/06/17 02:53:07;;;;;;;;;11.33;11.33;;;;;21.42;47.79;98676.97;4615728;28;102024;-86
2021/06/17 02:56:44;;;;;;;;;10.67;10.00;;;;;21.51;47.73;98697.38;4603381;28;102241;-85
2021/06/17 03:00:22;;;;;;;;;11.67;10.00;;;;;21.53;47.93;98700.66;4760810;28;108312;-85
2021/06/17 03:03:19;;;;;;;;;10.67;10.00;;;;;21.51;47.31;98697.38;4637844;29;102943;-84
2021/06/17 03:06:27;;;;;;;;;12.33;9.00;;;;;21.51;47.47;98698.22;4693692;29;104431;-85
2021/06/17 03:09:29;;;;;;;;;8.67;8.67;;;;;21.42;47.34;98699.81;4716418;28;101807;-84
2021/06/17 03:12:21;;;;;;;;;11.33;11.33;;;;;21.48;47.02;98704.22;4799093;28;106289;-85
2021/06/17 03:15:06;;;;;;;;;11.33;11.00;;;;;21.46;47.24;98711.09;4739947;28;103853;-85
2021/06/17 03:17:52;;;;;;;;;10.67;10.67;;;;;21.45;47.41;98698.44;4667154;28;102684;-85
2021/06/17 03:20:55;;;;;;;;;13.33;12.00;;;;;21.46;47.16;98714.69;4655046;28;102999;-86
2021/06/17 03:24:15;;;;;;;;;8.67;8.67;;;;;21.49;47.07;98721.56;4771794;28;104947;-85
2021/06/17 03:27:01;;;;;;;;;10.00;8.67;;;;;21.49;46.93;98722.41;4711595;28;102572;-86
2021/06/17 03:29:50;;;;;;;;;9.33;9.00;;;;;21.47;46.98;98710.84;4720664;28;102368;-85
2021/06/17 03:33:01;;;;;;;;;10.00;10.00;;;;;21.39;47.29;98705.84;4649574;28;102748;-86
2021/06/17 03:36:09;;;;;;;;;11.33;10.67;;;;;21.35;46.96;98696.47;4573943;28;106659;-86
2021/06/17 03:38:57;;;;;;;;;10.33;10.33;;;;;21.38;47.39;98700.63;4725678;28;102712;-84
2021/06/17 03:41:49;;;;;;;;;11.00;11.00;;;;;21.40;47.08;98692.91;4735617;28;102396;-84
2021/06/17 03:44:53;;;;;;;;;10.67;10.00;;;;;21.38;46.73;98690.44;4735861;28;104339;-86
2021/06/17 03:47:37;;;;;;;;;10.00;10.00;;;;;21.43;47.09;98706.16;4610287;28;104965;-86
2021/06/17 03:50:21;;;;;;;;;12.00;11.00;;;;;21.39;46.90;98694.03;4672451;28;107760;-86
2021/06/17 03:53:05;;;;;;;;;11.00;10.00;;;;;21.42;46.74;98710.81;4734247;28;104480;-84
2021/06/17 03:55:47;;;;;;;;;11.67;10.00;;;;;21.43;47.10;98706.16;4688135;28;103892;-85
2021/06/17 03:58:33;;;;;;;;;12.67;11.67;;;;;21.43;46.66;98701.47;4703559;28;102272;-85
2021/06/17 04:01:16;;;;;;;;;9.67;9.67;;;;;21.41;46.53;98703.66;4742550;28;102643;-85
2021/06/17 04:03:58;;;;;;;;;12.00;12.00;;;;;21.45;46.61;98710.28;4576745;28;102937;-85
2021/06/17 04:06:42;;;;;;;;;10.00;10.00;;;;;21.39;46.93;98705.03;4802726;28;102751;-86
2021/06/17 04:09:27;;;;;;;;;10.67;10.00;;;;;21.39;46.94;98705.84;4808864;28;110470;-86
2021/06/17 04:12:15;;;;;;;;;11.33;11.00;;;;;21.37;46.70;98702.53;4806230;28;102989;-83
2021/06/17 04:15:00;;;;;;;;;11.33;11.33;;;;;21.38;46.41;98708.88;4765302;28;102236;-85
2021/06/17 04:17:43;;;;;;;;;10.67;10.00;;;;;21.40;46.70;98704.75;4849098;28;102414;-86
2021/06/17 04:20:31;;;;;;;;;12.00;11.00;;;;;21.36;46.79;98701.72;4798252;28;108827;-86
2021/06/17 04:23:14;;;;;;;;;11.00;10.00;;;;;21.43;46.51;98706.16;4879932;28;102149;-85
2021/06/17 04:25:57;;;;;;;;;9.67;9.67;;;;;21.41;46.54;98709.16;4819693;28;102219;-85
2021/06/17 04:28:39;;;;;;;;;12.67;11.00;;;;;21.36;46.45;98704.47;4901860;28;106447;-86
2021/06/17 04:31:20;;;;;;;;;10.33;10.33;;;;;21.42;46.67;98715.50;4879773;28;108447;-85
2021/06/17 04:34:01;;;;;;;;;12.33;12.00;;;;;21.41;46.50;98714.66;4882524;28;101906;-86
2021/06/17 04:36:29;;;;;;;;;12.00;12.00;;;;;21.41;46.28;98725.66;4915036;28;101357;-85
2021/06/17 04:38:56;;;;;;;;;12.00;11.33;;;;;21.30;46.42;98704.69;4907300;28;103040;-85
2021/06/17 04:41:38;;;;;;;;;10.67;10.33;;;;;21.40;46.69;98715.75;4902451;28;103617;-85
2021/06/17 04:44:19;;;;;;;;;11.33;10.00;;;;;21.34;47.00;98712.13;4908899;28;101873;-84
2021/06/17 04:46:59;;;;;;;;;13.00;13.00;;;;;21.34;46.56;98709.38;4842103;28;102336;-86
2021/06/17 04:49:41;;;;;;;;;13.33;11.33;;;;;21.44;46.92;98729.78;4915473;28;103520;-86
2021/06/17 04:52:45;;;;;;;;;11.00;11.00;;;;;21.44;46.97;98730.63;4898865;28;106273;-83
2021/06/17 04:55:14;;;;;;;;;10.33;10.33;;;;;21.28;46.83;98704.97;4903929;28;102459;-85
2021/06/17 04:57:55;;;;;;;;;13.67;13.00;;;;;21.36;47.04;98712.72;4884573;28;102264;-86
2021/06/17 05:00:24;;;;;;;;;11.33;11.33;;;;;21.43;46.81;98728.16;4918284;28;102238;-85
2021/06/17 05:03:05;;;;;;;;;10.00;10.00;;;;;21.35;46.88;98710.22;4903113;28;102105;-85
2021/06/17 05:05:32;;;;;;;;;12.00;10.67;;;;;21.41;46.65;98725.66;4902909;28;102284;-85
2021/06/17 05:11:00;;;;;;;;;14.00;11.00;;;;;21.41;46.84;98713.84;4923200;28;102025;-85
2021/06/17 05:13:43;;;;;;;;;13.00;10.67;;;;;21.39;46.97;98699.53;4908222;28;104129;-85
2021/06/17 05:16:24;;;;;;;;;11.00;10.33;;;;;21.48;47.05;98719.94;4898989;28;102335;-86
2021/06/17 05:19:04;;;;;;;;;13.33;12.67;;;;;21.43;46.68;98708.91;4917650;28;101991;-85
2021/06/17 05:21:32;;;;;;;;;12.67;12.00;;;;;21.47;46.39;98718.28;4930295;28;109913;-86
2021/06/17 05:24:12;;;;;;;;;12.33;10.33;;;;;21.50;46.50;98717.72;4914680;28;101874;-87
2021/06/17 05:26:53;;;;;;;;;11.00;11.00;;;;;21.52;46.61;98715.53;4909648;28;101529;-84
2021/06/17 05:29:34;;;;;;;;;11.33;10.00;;;;;21.48;47.04;98708.94;4922908;28;102621;-84
2021/06/17 05:32:02;;;;;;;;;12.00;12.00;;;;;21.46;46.59;98708.34;4925952;28;101770;-83
2021/06/17 05:34:42;;;;;;;;;12.33;12.33;;;;;21.56;46.90;98716.66;4906008;28;103904;-85
2021/06/17 05:37:23;;;;;;;;;12.00;9.33;;;;;21.49;46.70;98716.06;4900014;28;102498;-85
2021/06/17 05:40:05;;;;;;;;;12.00;10.00;;;;;21.57;46.73;98726.56;4851116;28;102279;-86
2021/06/17 05:42:45;;;;;;;;;10.33;10.33;;;;;21.55;46.95;98731.50;4907681;28;102075;-85
2021/06/17 05:45:26;;;;;;;;;12.67;12.00;;;;;21.55;46.80;98726.00;4899674;28;108633;-86
2021/06/17 05:48:07;;;;;;;;;14.33;13.00;;;;;21.57;46.56;98729.31;4916105;28;102406;-85
2021/06/17 05:50:48;;;;;;;;;12.00;12.00;;;;;21.48;47.01;98712.47;4915946;28;101899;-86
2021/06/17 05:53:29;;;;;;;;;12.00;12.00;;;;;21.60;46.79;98739.78;4878556;28;102398;-86
2021/06/17 05:56:10;;;;;;;;;14.00;13.00;;;;;21.51;46.74;98725.72;4917711;28;103834;-86
2021/06/17 05:58:51;;;;;;;;;15.00;12.33;;;;;21.55;47.27;98743.34;4895390;28;101972;-85
2021/06/17 06:01:32;;;;;;;;;10.33;10.33;;;;;21.57;46.92;98745.84;4917058;28;101935;-86
2021/06/17 06:04:12;;;;;;;;;12.67;12.67;;;;;21.56;47.00;98745.00;4900586;28;103211;-85
2021/06/17 06:06:54;;;;;;;;;11.67;11.33;;;;;21.56;46.79;98738.66;4912745;28;108240;-86
2021/06/17 06:09:35;;;;;;;;;11.33;11.33;;;;;21.62;46.68;98751.34;4864499;28;102333;-85
2021/06/17 06:12:16;;;;;;;;;10.67;9.67;;;;;21.63;47.15;98745.56;4925648;28;102116;-85
2021/06/17 06:14:56;;;;;;;;;11.00;10.33;;;;;21.63;46.83;98753.84;4916369;28;102068;-85
2021/06/17 06:17:24;;;;;;;;;14.00;13.00;;;;;21.59;47.00;98749.97;4922673;28;103056;-85
2021/06/17 06:20:05;;;;;;;;;11.00;11.00;;;;;21.59;47.26;98749.97;4857484;28;103812;-86
2021/06/17 06:22:34;;;;;;;;;13.00;11.33;;;;;21.63;46.85;98761.25;4903347;28;102791;-85
2021/06/17 06:25:02;;;;;;;;;13.00;11.33;;;;;21.62;47.16;98754.09;4925191;28;102351;-86
2021/06/17 06:27:43;;;;;;;;;8.67;8.67;;;;;21.60;47.04;98762.63;4912429;28;103662;-87
2021/06/17 06:30:11;;;;;;;;;11.00;10.33;;;;;21.63;47.51;98761.25;4909338;28;102028;-86
2021/06/17 06:32:52;;;;;;;;;14.00;13.00;;;;;21.72;47.31;98778.91;4919798;28;102035;-85
2021/06/17 06:35:19;;;;;;;;;11.67;11.33;;;;;21.68;47.45;98775.03;4920406;28;102577;-85
2021/06/17 06:38:03;;;;;;;;;12.00;11.00;;;;;21.65;47.71;98770.09;4920417;28;109860;-85
2021/06/17 06:40:35;;;;;;;;;12.67;11.33;;;;;21.67;46.95;98774.22;4902177;28;102327;-86
2021/06/17 06:43:17;;;;;;;;;11.00;10.00;;;;;21.74;47.37;98774.81;4908489;28;101971;-85
2021/06/17 06:45:57;;;;;;;;;11.00;10.33;;;;;21.72;47.14;98770.66;4905612;28;102269;-85
2021/06/17 06:48:38;;;;;;;;;14.00;11.33;;;;;21.75;47.57;98781.13;4903087;28;103459;-84
2021/06/17 06:51:19;;;;;;;;;11.00;9.67;;;;;21.72;47.38;98771.50;4918219;28;102276;-85
2021/06/17 06:54:00;;;;;;;;;11.00;9.67;;;;;21.67;47.22;98762.38;4917761;28;104695;-86
2021/06/17 06:56:40;;;;;;;;;11.67;10.67;;;;;21.63;47.38;98753.84;4929310;28;102059;-84
2021/06/17 06:59:21;;;;;;;;;12.67;10.67;;;;;21.69;47.39;98752.78;4912539;28;108129;-86
2021/06/17 07:02:03;;;;;;;;;11.67;11.33;;;;;21.72;47.44;98767.91;4904790;28;101686;-84
2021/06/17 07:04:44;;;;;;;;;11.00;10.00;;;;;21.80;47.86;98783.91;4913408;28;102200;-86
2021/06/17 07:07:24;;;;;;;;;11.00;9.67;;;;;21.76;47.64;98769.00;4921782;28;101400;-86
2021/06/17 07:10:07;;;;;;;;;9.33;9.00;;;;;21.71;47.34;98746.97;4864318;28;108284;-86
2021/06/17 07:12:48;;;;;;;;;11.33;8.67;;;;;21.74;47.55;98754.72;4914040;28;101898;-85
2021/06/17 07:15:28;;;;;;;;;12.00;11.00;;;;;21.74;47.55;98762.97;4914014;28;102112;-86
2021/06/17 07:18:09;;;;;;;;;10.67;9.00;;;;;21.81;47.69;98774.53;4925288;28;101995;-85
2021/06/17 07:20:50;;;;;;;;;11.67;11.67;;;;;21.79;47.33;98771.25;4924080;28;104175;-85
2021/06/17 07:23:33;;;;;;;;;10.00;8.00;;;;;21.85;47.67;98786.66;4914148;28;101368;-86
2021/06/17 07:26:02;;;;;;;;;11.00;11.00;;;;;21.84;47.26;98785.00;4908885;28;102447;-86
2021/06/17 07:28:42;;;;;;;;;12.00;10.67;;;;;21.84;47.80;98785.00;4904299;28;102151;-84
2021/06/17 07:31:25;;;;;;;;;10.67;9.67;;;;;21.77;47.83;98778.94;4914683;28;108501;-86
2021/06/17 07:34:09;;;;;;;;;9.67;9.67;;;;;21.82;47.65;98781.72;4863478;28;104293;-85
2021/06/17 07:36:51;;;;;;;;;9.67;9.67;;;;;21.89;47.57;98793.28;4906534;28;102220;-86
2021/06/17 07:39:34;;;;;;;;;10.33;9.00;;;;;21.90;47.72;98791.38;4923301;28;102007;-87
2021/06/17 07:42:15;;;;;;;;;10.00;10.00;;;;;21.81;47.34;98788.31;4916418;28;103918;-86
2021/06/17 07:44:56;;;;;;;;;10.00;10.00;;;;;21.89;47.50;98793.28;4898968;28;101309;-86
2021/06/17 07:47:37;;;;;;;;;11.00;10.33;;;;;21.92;47.69;98800.19;4914401;28;101898;-86
2021/06/17 07:50:18;;;;;;;;;9.67;9.67;;;;;21.84;47.80;98779.50;4927451;28;101334;-85
2021/06/17 07:52:59;;;;;;;;;8.67;8.67;;;;;21.87;47.76;98787.25;4873969;28;108092;-87
2021/06/17 07:55:40;;;;;;;;;11.00;10.00;;;;;21.83;47.45;98788.88;4917806;28;102622;-86
2021/06/17 07:58:21;;;;;;;;;8.33;7.67;;;;;21.91;47.82;98801.28;4902041;28;109394;-87
2021/06/17 08:01:01;;;;;;;;;10.67;9.33;;;;;21.91;47.28;98802.13;4896512;28;102768;-85
2021/06/17 08:03:43;;;;;;;;;8.67;8.67;;;;;21.87;47.46;98795.50;4892662;28;103604;-87
2021/06/17 08:06:24;;;;;;;;;11.67;10.00;;;;;21.95;47.72;98811.53;4898191;28;102238;-86
2021/06/17 08:09:05;;;;;;;;;9.33;9.33;;;;;21.95;47.53;98791.41;4899298;28;102188;-86
2021/06/17 08:11:48;;;;;;;;;9.33;8.67;;;;;21.96;47.43;98795.84;4920850;28;104677;-86
2021/06/17 08:14:29;;;;;;;;;10.00;10.00;;;;;21.91;47.62;98795.78;4910182;28;108270;-84
2021/06/17 08:17:10;;;;;;;;;9.67;9.33;;;;;22.00;47.53;98814.31;4919626;28;102263;-86
2021/06/17 08:19:51;;;;;;;;;9.00;8.00;;;;;22.02;47.57;98811.28;4907804;28;108535;-86
2021/06/17 08:22:31;;;;;;;;;10.33;10.00;;;;;21.97;47.81;98801.09;4865971;28;102546;-86
2021/06/17 08:25:13;;;;;;;;;10.00;8.33;;;;;22.02;47.62;98814.03;4912137;28;103615;-86
2021/06/17 08:27:53;;;;;;;;;9.00;8.33;;;;;21.94;47.62;98800.78;4918909;28;102515;-86
2021/06/17 08:30:36;;;;;;;;;11.00;9.00;;;;;22.05;47.77;98817.09;4895818;28;101994;-85
2021/06/17 08:33:17;;;;;;;;;10.00;8.67;;;;;22.00;47.71;98806.03;4929246;28;102514;-86
2021/06/17 08:35:59;;;;;;;;;12.00;10.00;;;;;22.06;47.53;98820.66;4912998;28;108387;-86
2021/06/17 08:38:42;;;;;;;;;11.00;10.00;;;;;21.94;47.58;98789.75;4924111;28;102140;-86
2021/06/17 08:41:22;;;;;;;;;11.33;11.33;;;;;22.07;47.64;98820.38;4924024;28;102194;-85
2021/06/17 08:44:04;;;;;;;;;9.00;8.33;;;;;22.01;47.80;98815.97;4927411;28;102314;-86
2021/06/17 08:46:45;;;;;;;;;9.67;9.67;;;;;22.04;47.82;98817.34;4895751;28;103698;-86
2021/06/17 08:49:27;;;;;;;;;10.00;10.00;;;;;22.04;47.83;98809.91;4906523;28;109217;-85
2021/06/17 08:52:08;;;;;;;;;10.67;9.33;;;;;22.11;47.56;98817.94;4861446;28;101854;-86
2021/06/17 08:54:49;;;;;;;;;9.00;9.00;;;;;22.11;47.61;98818.75;4908700;28;102267;-85
2021/06/17 08:57:30;;;;;;;;;9.33;8.33;;;;;22.11;47.59;98818.75;4911999;28;108961;-86
2021/06/17 09:00:20;;;;;;;;;6.67;6.67;;;;;22.11;47.46;98815.19;4909946;28;101639;-86
2021/06/17 09:03:02;;;;;;;;;9.67;9.00;;;;;22.05;47.50;98797.81;4918096;28;104238;-86
2021/06/17 09:05:51;;;;;;;;;10.00;10.00;;;;;22.13;47.74;98810.22;4917651;28;102100;-86
2021/06/17 09:08:33;;;;;;;;;10.33;9.67;;;;;22.16;47.78;98816.00;4905360;28;108013;-86
2021/06/17 09:11:05;;;;;;;;;8.33;8.33;;;;;22.17;47.57;98819.59;4921246;28;102003;-85
2021/06/17 09:13:46;;;;;;;;;9.00;9.00;;;;;22.13;47.65;98811.03;4926848;28;102051;-86
2021/06/17 09:16:28;;;;;;;;;9.33;9.33;;;;;22.06;47.43;98799.47;4884272;28;101975;-85
2021/06/17 09:19:09;;;;;;;;;11.33;9.67;;;;;22.18;47.74;98816.56;4919438;28;103893;-85
2021/06/17 09:22:00;;;;;;;;;8.00;7.67;;;;;22.18;47.82;98816.56;4903585;28;102493;-85
2021/06/17 09:24:43;;;;;;;;;10.00;9.67;;;;;22.18;47.75;98813.81;4834033;28;102996;-85
2021/06/17 09:27:32;;;;;;;;;12.00;10.00;;;;;22.18;47.65;98811.06;4923461;28;101892;-85
2021/06/17 09:30:12;;;;;;;;;10.67;10.33;;;;;22.16;47.69;98804.97;4864523;28;107768;-86
2021/06/17 09:32:58;;;;;;;;;10.33;10.33;;;;;22.17;47.68;98797.56;4908595;28;102097;-85
2021/06/17 09:35:52;;;;;;;;;9.67;9.00;;;;;22.24;47.51;98815.47;4863152;28;101944;-85
2021/06/17 09:38:42;;;;;;;;;9.33;8.67;;;;;22.14;47.65;98790.66;4917015;28;101639;-86
2021/06/17 09:41:48;;;;;;;;;9.33;8.00;;;;;22.22;47.80;98805.84;4920070;28;108267;-86
2021/06/17 09:44:33;;;;;;;;;9.00;8.33;;;;;22.21;47.46;98802.25;4858834;28;102231;-86
2021/06/17 09:47:25;;;;;;;;;10.33;10.00;;;;;22.27;47.44;98814.13;4922337;28;102230;-86
2021/06/17 09:50:23;;;;;;;;;9.00;9.00;;;;;22.27;47.38;98805.84;4864950;28;102312;-84
2021/06/17 09:53:04;;;;;;;;;9.33;7.00;;;;;22.21;47.71;98796.75;4911827;28;109260;-86
2021/06/17 09:55:45;;;;;;;;;11.00;8.67;;;;;22.22;47.53;98812.16;4914635;28;102430;-86
2021/06/17 09:58:37;;;;;;;;;7.33;7.33;;;;;22.23;47.32;98802.81;4909958;28;102293;-85
2021/06/17 10:01:30;;;;;;;;;7.00;7.00;;;;;22.29;47.74;98805.59;4838216;28;103425;-86
2021/06/17 10:04:12;;;;;;;;;10.33;10.00;;;;;22.29;47.45;98792.63;4858645;28;108775;-86
2021/06/17 10:06:53;;;;;;;;;7.33;7.33;;;;;22.29;47.51;98802.84;4926554;28;102295;-86
2021/06/17 10:09:34;;;;;;;;;7.00;7.00;;;;;22.33;47.50;98801.19;4901273;28;102233;-85
2021/06/17 10:12:03;;;;;;;;;11.33;11.00;;;;;22.32;47.41;98802.28;4914178;28;101389;-85
2021/06/17 10:14:44;;;;;;;;;8.00;8.00;;;;;22.38;47.53;98806.72;4903082;28;103601;-86
2021/06/17 10:17:25;;;;;;;;;9.00;8.00;;;;;22.35;48.11;98807.22;4921627;28;103564;-85
2021/06/17 10:20:09;;;;;;;;;10.67;9.00;;;;;22.27;47.33;98782.97;4906630;28;102221;-86
2021/06/17 10:22:54;;;;;;;;;9.67;9.67;;;;;22.32;47.85;98791.25;4924343;28;101384;-85
2021/06/17 10:25:35;;;;;;;;;12.00;10.33;;;;;22.35;47.53;98791.53;4899146;28;107974;-87
2021/06/17 10:28:38;;;;;;;;;10.00;10.00;;;;;22.34;47.43;98795.38;4897534;28;101688;-85
2021/06/17 10:31:39;;;;;;;;;7.00;7.00;;;;;22.39;47.52;98803.66;4849161;28;101771;-85
2021/06/17 10:34:22;;;;;;;;;10.00;8.67;;;;;22.45;47.61;98807.25;4865013;28;102686;-87
2021/06/17 10:37:10;;;;;;;;;10.00;8.67;;;;;22.45;47.62;98799.00;4864175;28;108878;-87
2021/06/17 10:40:04;;;;;;;;;8.67;8.00;;;;;22.39;47.76;98786.31;4914230;28;102172;-86
2021/06/17 10:42:48;;;;;;;;;7.33;7.33;;;;;22.41;47.59;98784.13;4852223;28;102160;-85
2021/06/17 10:45:39;;;;;;;;;9.00;9.00;;;;;22.49;47.54;98786.31;4917102;28;102205;-86
2021/06/17 10:48:25;;;;;;;;;10.00;9.50;;;;;22.43;47.53;98768.94;4904596;28;104273;-86
2021/06/17 10:51:10;;;;;;;;;7.67;6.67;;;;;22.39;47.49;98759.56;4913609;28;102087;-86
2021/06/17 10:53:52;;;;;;;;;10.00;8.33;;;;;22.48;47.20;98776.41;4919072;28;101558;-85
2021/06/17 10:56:42;;;;;;;;;8.00;8.00;;;;;22.50;47.29;98776.97;4909182;28;102166;-86
2021/06/17 10:59:29;;;;;;;;;6.67;6.67;;;;;22.46;47.38;98775.84;4914027;28;103586;-86
2021/06/17 11:02:10;;;;;;;;;8.00;7.67;;;;;22.52;47.49;98781.09;4842861;28;101877;-86
2021/06/17 11:04:51;;;;;;;;;8.33;7.33;;;;;22.46;47.35;98768.41;4925482;28;102145;-87
2021/06/17 11:07:32;;;;;;;;;9.00;8.00;;;;;22.41;47.23;98753.81;4908618;28;102249;-86
2021/06/17 11:10:12;;;;;;;;;8.33;6.67;;;;;22.50;47.43;98777.78;4901830;28;104699;-84
2021/06/17 11:12:58;;;;;;;;;7.00;6.33;;;;;22.53;47.68;98777.22;4924001;28;102766;-86
2021/06/17 11:15:37;;;;;;;;;9.33;7.00;;;;;22.53;47.49;98763.47;4909111;28;102803;-86
2021/06/17 11:18:06;;;;;;;;;7.67;6.33;;;;;22.59;47.28;98775.31;4833289;28;101930;-85
2021/06/17 11:20:34;;;;;;;;;7.00;6.00;;;;;22.54;47.37;98759.59;4917735;28;101887;-85
2021/06/17 11:23:15;;;;;;;;;6.33;6.33;;;;;22.59;47.45;98762.38;4885726;28;102755;-86
2021/06/17 11:25:57;;;;;;;;;10.67;10.00;;;;;22.50;47.48;98741.13;4926780;28;102556;-86
2021/06/17 11:28:52;;;;;;;;;9.00;8.00;;;;;22.53;47.46;98737.81;4909004;28;101780;-85
2021/06/17 11:31:45;;;;;;;;;10.33;9.67;;;;;22.62;47.31;98759.06;4923062;28;109194;-86
2021/06/17 11:34:29;;;;;;;;;9.33;7.67;;;;;22.65;47.38;98757.66;4903330;28;101879;-86
2021/06/17 11:37:04;;;;;;;;;6.00;6.00;;;;;22.61;47.44;98756.56;4924298;28;101922;-86
2021/06/17 11:39:46;;;;;;;;;8.00;7.00;;;;;22.59;47.34;98736.72;4905303;28;102235;-86
2021/06/17 11:42:27;;;;;;;;;7.33;7.00;;;;;22.66;47.36;98759.31;4891754;28;109249;-85
2021/06/17 11:45:10;;;;;;;;;6.67;6.33;;;;;22.65;47.38;98752.16;4914740;28;102146;-86
2021/06/17 11:47:51;;;;;;;;;8.33;7.33;;;;;22.58;47.13;98740.59;4891341;28;102346;-86
2021/06/17 11:50:32;;;;;;;;;7.00;7.00;;;;;22.64;47.31;98734.81;4901693;28;102151;-86
2021/06/17 11:53:19;;;;;;;;;7.00;7.00;;;;;22.67;47.48;98738.94;4914564;28;103626;-86
2021/06/17 11:56:00;;;;;;;;;7.00;6.00;;;;;22.66;47.26;98738.09;4899417;28;103487;-86
2021/06/17 11:58:41;;;;;;;;;6.67;6.67;;;;;22.67;47.22;98744.44;4913324;28;102155;-86
2021/06/17 12:01:24;;;;;;;;;7.67;6.00;;;;;22.68;47.33;98735.91;4915667;28;102436;-86
2021/06/17 12:04:11;;;;;;;;;6.33;6.33;;;;;22.68;47.22;98726.81;4921509;28;109187;-86
2021/06/17 12:07:12;;;;;;;;;8.33;8.33;;;;;22.71;47.39;98740.06;4899426;28;103213;-86
2021/06/17 12:09:55;;;;;;;;;6.67;6.67;;;;;22.74;47.38;98745.00;4855956;28;102197;-86
2021/06/17 12:12:41;;;;;;;;;7.00;7.00;;;;;22.71;47.31;98730.97;4832535;28;102482;-87
2021/06/17 12:15:26;;;;;;;;;7.33;7.33;;;;;22.71;47.46;98729.03;4922260;28;103666;-87
2021/06/17 12:18:14;;;;;;;;;8.33;6.00;;;;;22.66;47.40;98717.97;4909783;28;102035;-87
2021/06/17 12:20:55;;;;;;;;;7.00;7.00;;;;;22.71;47.37;98728.19;4915944;28;101806;-87
2021/06/17 12:23:36;;;;;;;;;7.67;7.00;;;;;22.75;47.31;98729.28;4912236;28;101382;-86
2021/06/17 12:26:17;;;;;;;;;7.00;6.00;;;;;22.79;47.41;98735.91;4904883;28;103789;-87
2021/06/17 12:29:12;;;;;;;;;6.67;6.67;;;;;22.77;47.16;98736.22;4912984;28;101307;-86
2021/06/17 12:31:54;;;;;;;;;7.33;6.33;;;;;22.77;47.34;98735.38;4861307;28;101386;-86
2021/06/17 12:34:39;;;;;;;;;7.00;6.00;;;;;22.75;47.28;98724.63;4906350;28;102178;-87
2021/06/17 12:37:20;;;;;;;;;8.00;6.33;;;;;22.79;47.13;98724.88;4916489;28;103617;-86
2021/06/17 12:40:04;;;;;;;;;7.00;7.00;;;;;22.80;47.14;98721.03;4914504;28;102558;-85
2021/06/17 12:43:03;;;;;;;;;7.33;7.33;;;;;22.85;47.21;98723.78;4850049;28;102220;-86